sensor_id;sensor_type;location;lat;lon;timestamp;temperature;humidity
25450;DHT22;13371;52.080;5.624;2024-01-15T00:01:43;5.70;99.90
25450;DHT22;13371;52.080;5.624;2024-01-15T00:04:09;5.60;99.90
25450;DHT22;13371;52.080;5.624;2024-01-15T00:06:35;5.70;99.90
25450;DHT22;13371;52.080;5.624;2024-01-15T00:09:00;5.60;99.90
25450;DHT22;13371;52.080;5.624;2024-01-15T00:11:26;5.70;99.90
25450;DHT22;13371;52.080;5.624;2024-01-15T00:13:52;5.60;99.90
25450;DHT22;13371;52.080;5.624;2024-01-15T00:16:17;5.60;99.90
25450;DHT22;13371;52.080;5.624;2024-01-15T00:18:43;5.50;99.90
25450;DHT22;13371;52.080;5.624;2024-01-15T00:21:09;5.50;99.90
25450;DHT22;13371;52.080;5.624;2024-01-15T00:23:34;5.10;99.90
25450;DHT22;13371;52.080;5.624;2024-01-15T00:26:00;5.10;99.90
25450;DHT22;13371;52.080;5.624;2024-01-15T00:28:26;5.20;99.90
25450;DHT22;13371;52.080;5.624;2024-01-15T00:30:51;5.20;99.90
25450;DHT22;13371;52.080;5.624;2024-01-15T00:33:17;5.20;99.90
25450;DHT22;13371;52.080;5.624;2024-01-15T00:35:42;5.00;99.90
25450;DHT22;13371;52.080;5.624;2024-01-15T00:38:08;5.00;99.90
25450;DHT22;13371;52.080;5.624;2024-01-15T00:40:33;4.80;99.90
25450;DHT22;13371;52.080;5.624;2024-01-15T00:42:59;4.70;99.90
25450;DHT22;13371;52.080;5.624;2024-01-15T00:45:24;4.90;99.90
25450;DHT22;13371;52.080;5.624;2024-01-15T00:47:50;4.80;99.90
25450;DHT22;13371;52.080;5.624;2024-01-15T00:50:15;4.40;99.90
25450;DHT22;13371;52.080;5.624;2024-01-15T00:52:41;4.60;99.90
25450;DHT22;13371;52.080;5.624;2024-01-15T00:55:07;4.40;99.90
25450;DHT22;13371;52.080;5.624;2024-01-15T00:57:32;4.50;99.90
25450;DHT22;13371;52.080;5.624;2024-01-15T00:59:58;4.50;99.90
25450;DHT22;13371;52.080;5.624;2024-01-15T01:02:24;4.70;99.90
25450;DHT22;13371;52.080;5.624;2024-01-15T01:04:49;4.70;99.90
25450;DHT22;13371;52.080;5.624;2024-01-15T01:07:15;4.50;99.90
25450;DHT22;13371;52.080;5.624;2024-01-15T01:09:40;4.60;99.90
25450;DHT22;13371;52.080;5.624;2024-01-15T01:12:06;4.60;99.90
25450;DHT22;13371;52.080;5.624;2024-01-15T01:14:32;4.60;99.90
25450;DHT22;13371;52.080;5.624;2024-01-15T01:16:57;4.80;99.90
25450;DHT22;13371;52.080;5.624;2024-01-15T01:19:23;4.90;99.90
25450;DHT22;13371;52.080;5.624;2024-01-15T01:21:50;4.90;99.90
25450;DHT22;13371;52.080;5.624;2024-01-15T01:24:16;4.90;99.90
25450;DHT22;13371;52.080;5.624;2024-01-15T01:26:42;5.00;99.90
25450;DHT22;13371;52.080;5.624;2024-01-15T01:29:07;5.00;99.90
25450;DHT22;13371;52.080;5.624;2024-01-15T01:31:33;4.80;99.90
25450;DHT22;13371;52.080;5.624;2024-01-15T01:33:59;4.80;99.90
25450;DHT22;13371;52.080;5.624;2024-01-15T01:36:24;4.80;99.90
25450;DHT22;13371;52.080;5.624;2024-01-15T01:38:50;4.70;99.90
25450;DHT22;13371;52.080;5.624;2024-01-15T01:41:15;4.80;99.90
25450;DHT22;13371;52.080;5.624;2024-01-15T01:43:41;5.00;99.90
25450;DHT22;13371;52.080;5.624;2024-01-15T01:46:06;5.00;99.90
25450;DHT22;13371;52.080;5.624;2024-01-15T01:48:32;5.00;99.90
25450;DHT22;13371;52.080;5.624;2024-01-15T01:51:00;5.00;99.90
25450;DHT22;13371;52.080;5.624;2024-01-15T01:53:27;5.00;99.90
25450;DHT22;13371;52.080;5.624;2024-01-15T01:55:56;5.10;99.90
25450;DHT22;13371;52.080;5.624;2024-01-15T01:58:22;5.10;99.90
25450;DHT22;13371;52.080;5.624;2024-01-15T02:00:48;5.00;99.90
25450;DHT22;13371;52.080;5.624;2024-01-15T02:03:14;5.00;99.90
25450;DHT22;13371;52.080;5.624;2024-01-15T02:05:42;5.00;99.90
25450;DHT22;13371;52.080;5.624;2024-01-15T02:08:10;5.00;99.90
25450;DHT22;13371;52.080;5.624;2024-01-15T02:10:35;4.90;99.90
25450;DHT22;13371;52.080;5.624;2024-01-15T02:13:02;5.10;99.90
25450;DHT22;13371;52.080;5.624;2024-01-15T02:15:27;5.30;99.90
25450;DHT22;13371;52.080;5.624;2024-01-15T02:18:00;5.10;99.90
25450;DHT22;13371;52.080;5.624;2024-01-15T02:20:26;5.10;99.90
25450;DHT22;13371;52.080;5.624;2024-01-15T02:22:51;4.90;99.90
25450;DHT22;13371;52.080;5.624;2024-01-15T02:25:18;4.60;99.90
25450;DHT22;13371;52.080;5.624;2024-01-15T02:27:44;4.80;99.90
25450;DHT22;13371;52.080;5.624;2024-01-15T02:30:12;4.70;99.90
25450;DHT22;13371;52.080;5.624;2024-01-15T02:32:38;4.40;99.90
25450;DHT22;13371;52.080;5.624;2024-01-15T02:35:04;4.10;99.90
25450;DHT22;13371;52.080;5.624;2024-01-15T02:37:30;3.80;99.90
25450;DHT22;13371;52.080;5.624;2024-01-15T02:39:55;4.00;99.90
25450;DHT22;13371;52.080;5.624;2024-01-15T02:42:21;3.90;99.90
25450;DHT22;13371;52.080;5.624;2024-01-15T02:44:46;3.90;99.90
25450;DHT22;13371;52.080;5.624;2024-01-15T02:47:14;4.10;99.90
25450;DHT22;13371;52.080;5.624;2024-01-15T02:49:39;4.10;99.90
25450;DHT22;13371;52.080;5.624;2024-01-15T02:52:05;4.20;99.90
25450;DHT22;13371;52.080;5.624;2024-01-15T02:54:30;4.30;99.90
25450;DHT22;13371;52.080;5.624;2024-01-15T02:56:56;4.30;99.90
25450;DHT22;13371;52.080;5.624;2024-01-15T02:59:21;4.30;99.90
25450;DHT22;13371;52.080;5.624;2024-01-15T03:01:47;4.40;99.90
25450;DHT22;13371;52.080;5.624;2024-01-15T03:04:12;4.50;99.90
25450;DHT22;13371;52.080;5.624;2024-01-15T03:06:38;4.40;99.90
25450;DHT22;13371;52.080;5.624;2024-01-15T03:09:03;4.60;99.90
25450;DHT22;13371;52.080;5.624;2024-01-15T03:11:29;4.60;99.90
25450;DHT22;13371;52.080;5.624;2024-01-15T03:13:55;4.50;99.90
25450;DHT22;13371;52.080;5.624;2024-01-15T03:16:20;4.60;99.90
25450;DHT22;13371;52.080;5.624;2024-01-15T03:18:46;4.70;99.90
25450;DHT22;13371;52.080;5.624;2024-01-15T03:21:11;4.50;99.90
25450;DHT22;13371;52.080;5.624;2024-01-15T03:23:37;4.50;99.90
25450;DHT22;13371;52.080;5.624;2024-01-15T03:26:03;4.60;99.90
25450;DHT22;13371;52.080;5.624;2024-01-15T03:28:28;4.60;99.90
25450;DHT22;13371;52.080;5.624;2024-01-15T03:30:55;4.50;99.90
25450;DHT22;13371;52.080;5.624;2024-01-15T03:33:21;4.60;99.90
25450;DHT22;13371;52.080;5.624;2024-01-15T03:35:47;4.70;99.90
25450;DHT22;13371;52.080;5.624;2024-01-15T03:38:12;4.60;99.90
25450;DHT22;13371;52.080;5.624;2024-01-15T03:40:38;4.80;99.90
25450;DHT22;13371;52.080;5.624;2024-01-15T03:43:03;4.90;99.90
25450;DHT22;13371;52.080;5.624;2024-01-15T03:45:29;4.70;99.90
25450;DHT22;13371;52.080;5.624;2024-01-15T03:47:54;4.80;99.90
25450;DHT22;13371;52.080;5.624;2024-01-15T03:50:20;4.90;99.90
25450;DHT22;13371;52.080;5.624;2024-01-15T03:52:45;4.90;99.90
25450;DHT22;13371;52.080;5.624;2024-01-15T03:55:11;4.80;99.90
25450;DHT22;13371;52.080;5.624;2024-01-15T03:57:37;4.60;99.90
25450;DHT22;13371;52.080;5.624;2024-01-15T04:00:03;4.70;99.90
25450;DHT22;13371;52.080;5.624;2024-01-15T04:02:28;4.80;99.90
25450;DHT22;13371;52.080;5.624;2024-01-15T04:04:54;4.80;99.90
25450;DHT22;13371;52.080;5.624;2024-01-15T04:07:20;4.80;99.90
25450;DHT22;13371;52.080;5.624;2024-01-15T04:09:45;4.80;99.90
25450;DHT22;13371;52.080;5.624;2024-01-15T04:12:11;4.90;99.90
25450;DHT22;13371;52.080;5.624;2024-01-15T04:14:36;5.00;99.90
25450;DHT22;13371;52.080;5.624;2024-01-15T04:17:02;5.00;99.90
25450;DHT22;13371;52.080;5.624;2024-01-15T04:19:27;5.00;99.90
25450;DHT22;13371;52.080;5.624;2024-01-15T04:21:53;5.10;99.90
25450;DHT22;13371;52.080;5.624;2024-01-15T04:24:18;5.00;99.90
25450;DHT22;13371;52.080;5.624;2024-01-15T04:26:45;4.80;99.90
25450;DHT22;13371;52.080;5.624;2024-01-15T04:29:10;4.90;99.90
25450;DHT22;13371;52.080;5.624;2024-01-15T04:31:36;4.90;99.90
25450;DHT22;13371;52.080;5.624;2024-01-15T04:34:01;5.10;99.90
25450;DHT22;13371;52.080;5.624;2024-01-15T04:36:27;5.00;99.90
25450;DHT22;13371;52.080;5.624;2024-01-15T04:38:52;5.10;99.90
25450;DHT22;13371;52.080;5.624;2024-01-15T04:41:18;5.10;99.90
25450;DHT22;13371;52.080;5.624;2024-01-15T04:43:43;5.10;99.90
25450;DHT22;13371;52.080;5.624;2024-01-15T04:46:09;4.90;99.90
25450;DHT22;13371;52.080;5.624;2024-01-15T04:48:35;5.00;99.90
25450;DHT22;13371;52.080;5.624;2024-01-15T04:51:03;5.00;99.90
25450;DHT22;13371;52.080;5.624;2024-01-15T04:53:29;5.20;99.90
25450;DHT22;13371;52.080;5.624;2024-01-15T04:55:54;5.00;99.90
25450;DHT22;13371;52.080;5.624;2024-01-15T04:58:20;5.00;99.90
25450;DHT22;13371;52.080;5.624;2024-01-15T05:00:45;4.90;99.90
25450;DHT22;13371;52.080;5.624;2024-01-15T05:03:11;4.70;99.90
25450;DHT22;13371;52.080;5.624;2024-01-15T05:05:36;4.60;99.90
25450;DHT22;13371;52.080;5.624;2024-01-15T05:08:02;4.40;99.90
25450;DHT22;13371;52.080;5.624;2024-01-15T05:10:28;4.30;99.90
25450;DHT22;13371;52.080;5.624;2024-01-15T05:12:53;4.50;99.90
25450;DHT22;13371;52.080;5.624;2024-01-15T05:15:19;4.50;99.90
25450;DHT22;13371;52.080;5.624;2024-01-15T05:17:45;4.40;99.90
25450;DHT22;13371;52.080;5.624;2024-01-15T05:20:10;4.40;99.90
25450;DHT22;13371;52.080;5.624;2024-01-15T05:22:36;4.30;99.90
25450;DHT22;13371;52.080;5.624;2024-01-15T05:25:01;4.10;99.90
25450;DHT22;13371;52.080;5.624;2024-01-15T05:27:27;4.00;99.90
25450;DHT22;13371;52.080;5.624;2024-01-15T05:29:53;3.90;99.90
25450;DHT22;13371;52.080;5.624;2024-01-15T05:32:18;3.80;99.90
25450;DHT22;13371;52.080;5.624;2024-01-15T05:34:44;3.90;99.90
25450;DHT22;13371;52.080;5.624;2024-01-15T05:37:09;3.80;99.90
25450;DHT22;13371;52.080;5.624;2024-01-15T05:39:35;3.90;99.90
25450;DHT22;13371;52.080;5.624;2024-01-15T05:42:00;3.90;99.90
25450;DHT22;13371;52.080;5.624;2024-01-15T05:44:26;3.90;99.90
25450;DHT22;13371;52.080;5.624;2024-01-15T05:46:51;4.00;99.90
25450;DHT22;13371;52.080;5.624;2024-01-15T05:49:17;4.20;99.90
25450;DHT22;13371;52.080;5.624;2024-01-15T05:51:42;4.30;99.90
25450;DHT22;13371;52.080;5.624;2024-01-15T05:54:08;4.40;99.90
25450;DHT22;13371;52.080;5.624;2024-01-15T05:56:33;4.30;99.90
25450;DHT22;13371;52.080;5.624;2024-01-15T05:58:59;4.50;99.90
25450;DHT22;13371;52.080;5.624;2024-01-15T06:01:24;4.50;99.90
25450;DHT22;13371;52.080;5.624;2024-01-15T06:03:51;4.60;99.90
25450;DHT22;13371;52.080;5.624;2024-01-15T06:06:17;4.70;99.90
25450;DHT22;13371;52.080;5.624;2024-01-15T06:08:43;4.80;99.90
25450;DHT22;13371;52.080;5.624;2024-01-15T06:11:08;4.70;99.90
25450;DHT22;13371;52.080;5.624;2024-01-15T06:13:34;4.60;99.90
25450;DHT22;13371;52.080;5.624;2024-01-15T06:15:59;4.60;99.90
25450;DHT22;13371;52.080;5.624;2024-01-15T06:18:25;4.40;99.90
25450;DHT22;13371;52.080;5.624;2024-01-15T06:20:50;4.30;99.90
25450;DHT22;13371;52.080;5.624;2024-01-15T06:23:16;4.60;99.90
25450;DHT22;13371;52.080;5.624;2024-01-15T06:25:42;4.80;99.90
25450;DHT22;13371;52.080;5.624;2024-01-15T06:28:07;4.90;99.90
25450;DHT22;13371;52.080;5.624;2024-01-15T06:30:33;4.90;99.90
25450;DHT22;13371;52.080;5.624;2024-01-15T06:32:58;4.80;99.90
25450;DHT22;13371;52.080;5.624;2024-01-15T06:35:24;4.70;99.90
25450;DHT22;13371;52.080;5.624;2024-01-15T06:37:49;4.70;99.90
25450;DHT22;13371;52.080;5.624;2024-01-15T06:40:15;4.90;99.90
25450;DHT22;13371;52.080;5.624;2024-01-15T06:42:41;5.00;99.90
25450;DHT22;13371;52.080;5.624;2024-01-15T06:45:07;5.10;99.90
25450;DHT22;13371;52.080;5.624;2024-01-15T06:47:32;5.10;99.90
25450;DHT22;13371;52.080;5.624;2024-01-15T06:49:58;5.10;99.90
25450;DHT22;13371;52.080;5.624;2024-01-15T06:52:24;5.00;99.90
25450;DHT22;13371;52.080;5.624;2024-01-15T06:54:49;5.00;99.90
25450;DHT22;13371;52.080;5.624;2024-01-15T06:57:15;4.70;99.90
25450;DHT22;13371;52.080;5.624;2024-01-15T06:59:40;5.00;99.90
25450;DHT22;13371;52.080;5.624;2024-01-15T07:02:06;4.80;99.90
25450;DHT22;13371;52.080;5.624;2024-01-15T07:04:32;4.80;99.90
25450;DHT22;13371;52.080;5.624;2024-01-15T07:06:57;4.90;99.90
25450;DHT22;13371;52.080;5.624;2024-01-15T07:09:23;4.80;99.90
25450;DHT22;13371;52.080;5.624;2024-01-15T07:11:48;4.70;99.90
25450;DHT22;13371;52.080;5.624;2024-01-15T07:14:14;4.70;99.90
25450;DHT22;13371;52.080;5.624;2024-01-15T07:16:39;4.60;99.90
25450;DHT22;13371;52.080;5.624;2024-01-15T07:19:05;4.40;99.90
25450;DHT22;13371;52.080;5.624;2024-01-15T07:21:31;4.50;99.90
25450;DHT22;13371;52.080;5.624;2024-01-15T07:23:57;4.30;99.90
25450;DHT22;13371;52.080;5.624;2024-01-15T07:26:30;4.40;99.90
25450;DHT22;13371;52.080;5.624;2024-01-15T07:28:55;4.50;99.90
25450;DHT22;13371;52.080;5.624;2024-01-15T07:31:21;4.70;99.90
25450;DHT22;13371;52.080;5.624;2024-01-15T07:33:47;4.60;99.90
25450;DHT22;13371;52.080;5.624;2024-01-15T07:36:12;4.60;99.90
25450;DHT22;13371;52.080;5.624;2024-01-15T07:38:38;4.70;99.90
25450;DHT22;13371;52.080;5.624;2024-01-15T07:41:04;4.70;99.90
25450;DHT22;13371;52.080;5.624;2024-01-15T07:43:29;4.80;99.90
25450;DHT22;13371;52.080;5.624;2024-01-15T07:45:55;4.50;99.90
25450;DHT22;13371;52.080;5.624;2024-01-15T07:48:20;4.30;99.90
25450;DHT22;13371;52.080;5.624;2024-01-15T07:50:46;4.20;99.90
25450;DHT22;13371;52.080;5.624;2024-01-15T07:53:11;4.20;99.90
25450;DHT22;13371;52.080;5.624;2024-01-15T07:55:37;4.30;99.90
25450;DHT22;13371;52.080;5.624;2024-01-15T07:58:03;4.20;99.90
25450;DHT22;13371;52.080;5.624;2024-01-15T08:00:28;4.30;99.90
25450;DHT22;13371;52.080;5.624;2024-01-15T08:02:54;4.30;99.90
25450;DHT22;13371;52.080;5.624;2024-01-15T08:05:19;4.40;99.90
25450;DHT22;13371;52.080;5.624;2024-01-15T08:07:46;4.40;99.90
25450;DHT22;13371;52.080;5.624;2024-01-15T08:10:12;4.60;99.90
25450;DHT22;13371;52.080;5.624;2024-01-15T08:12:39;4.50;99.90
25450;DHT22;13371;52.080;5.624;2024-01-15T08:15:05;4.60;99.90
25450;DHT22;13371;52.080;5.624;2024-01-15T08:17:31;4.60;99.90
25450;DHT22;13371;52.080;5.624;2024-01-15T08:19:57;4.50;99.90
25450;DHT22;13371;52.080;5.624;2024-01-15T08:22:23;4.60;99.90
25450;DHT22;13371;52.080;5.624;2024-01-15T08:24:49;4.50;99.90
25450;DHT22;13371;52.080;5.624;2024-01-15T08:27:14;4.60;99.90
25450;DHT22;13371;52.080;5.624;2024-01-15T08:29:40;4.50;99.90
25450;DHT22;13371;52.080;5.624;2024-01-15T08:32:05;4.40;99.90
25450;DHT22;13371;52.080;5.624;2024-01-15T08:34:31;4.50;99.90
25450;DHT22;13371;52.080;5.624;2024-01-15T08:36:56;4.40;99.90
25450;DHT22;13371;52.080;5.624;2024-01-15T08:39:22;4.50;99.90
25450;DHT22;13371;52.080;5.624;2024-01-15T08:41:47;4.50;99.90
25450;DHT22;13371;52.080;5.624;2024-01-15T08:44:13;4.40;99.90
25450;DHT22;13371;52.080;5.624;2024-01-15T08:46:38;4.50;99.90
25450;DHT22;13371;52.080;5.624;2024-01-15T08:49:04;4.80;99.90
25450;DHT22;13371;52.080;5.624;2024-01-15T08:51:29;4.70;99.90
25450;DHT22;13371;52.080;5.624;2024-01-15T08:53:56;4.50;99.90
25450;DHT22;13371;52.080;5.624;2024-01-15T08:56:22;4.20;99.90
25450;DHT22;13371;52.080;5.624;2024-01-15T08:58:47;4.20;99.90
25450;DHT22;13371;52.080;5.624;2024-01-15T09:01:13;4.30;99.90
25450;DHT22;13371;52.080;5.624;2024-01-15T09:03:40;4.40;99.90
25450;DHT22;13371;52.080;5.624;2024-01-15T09:06:08;4.20;99.90
25450;DHT22;13371;52.080;5.624;2024-01-15T09:08:35;4.40;99.90
25450;DHT22;13371;52.080;5.624;2024-01-15T09:11:00;4.60;99.90
25450;DHT22;13371;52.080;5.624;2024-01-15T09:13:28;4.60;99.90
25450;DHT22;13371;52.080;5.624;2024-01-15T09:15:53;4.60;99.90
25450;DHT22;13371;52.080;5.624;2024-01-15T09:18:19;4.60;99.90
25450;DHT22;13371;52.080;5.624;2024-01-15T09:20:44;5.00;99.90
25450;DHT22;13371;52.080;5.624;2024-01-15T09:23:10;5.10;99.90
25450;DHT22;13371;52.080;5.624;2024-01-15T09:25:36;5.40;99.90
25450;DHT22;13371;52.080;5.624;2024-01-15T09:28:01;5.40;99.90
25450;DHT22;13371;52.080;5.624;2024-01-15T09:30:27;5.50;99.90
25450;DHT22;13371;52.080;5.624;2024-01-15T09:32:53;5.30;99.90
25450;DHT22;13371;52.080;5.624;2024-01-15T09:35:18;4.90;99.90
25450;DHT22;13371;52.080;5.624;2024-01-15T09:37:44;4.70;99.90
25450;DHT22;13371;52.080;5.624;2024-01-15T09:40:13;4.60;99.90
25450;DHT22;13371;52.080;5.624;2024-01-15T09:42:40;4.40;99.90
25450;DHT22;13371;52.080;5.624;2024-01-15T09:45:07;4.40;99.90
25450;DHT22;13371;52.080;5.624;2024-01-15T09:47:35;4.30;99.90
25450;DHT22;13371;52.080;5.624;2024-01-15T09:50:00;4.40;99.90
25450;DHT22;13371;52.080;5.624;2024-01-15T09:52:29;4.10;99.90
25450;DHT22;13371;52.080;5.624;2024-01-15T09:54:56;4.30;99.90
25450;DHT22;13371;52.080;5.624;2024-01-15T09:57:22;4.60;99.90
25450;DHT22;13371;52.080;5.624;2024-01-15T09:59:48;4.90;99.90
25450;DHT22;13371;52.080;5.624;2024-01-15T10:02:14;5.50;99.90
25450;DHT22;13371;52.080;5.624;2024-01-15T10:04:44;6.10;99.90
25450;DHT22;13371;52.080;5.624;2024-01-15T10:07:12;6.40;99.90
25450;DHT22;13371;52.080;5.624;2024-01-15T10:09:40;6.50;99.90
25450;DHT22;13371;52.080;5.624;2024-01-15T10:12:06;6.50;99.90
25450;DHT22;13371;52.080;5.624;2024-01-15T10:14:31;6.10;99.90
25450;DHT22;13371;52.080;5.624;2024-01-15T10:16:58;5.60;99.90
25450;DHT22;13371;52.080;5.624;2024-01-15T10:19:23;5.40;99.90
25450;DHT22;13371;52.080;5.624;2024-01-15T10:21:49;5.30;99.90
25450;DHT22;13371;52.080;5.624;2024-01-15T10:24:14;5.30;99.90
25450;DHT22;13371;52.080;5.624;2024-01-15T10:26:40;5.00;99.90
25450;DHT22;13371;52.080;5.624;2024-01-15T10:29:05;4.80;99.90
25450;DHT22;13371;52.080;5.624;2024-01-15T10:31:31;4.70;99.90
25450;DHT22;13371;52.080;5.624;2024-01-15T10:34:12;4.40;99.90
25450;DHT22;13371;52.080;5.624;2024-01-15T10:36:40;4.40;99.90
25450;DHT22;13371;52.080;5.624;2024-01-15T10:39:06;4.40;99.90
25450;DHT22;13371;52.080;5.624;2024-01-15T10:41:33;4.20;99.90
25450;DHT22;13371;52.080;5.624;2024-01-15T10:43:58;4.30;99.90
25450;DHT22;13371;52.080;5.624;2024-01-15T10:46:25;4.40;99.90
25450;DHT22;13371;52.080;5.624;2024-01-15T10:48:51;4.30;99.90
25450;DHT22;13371;52.080;5.624;2024-01-15T10:51:17;4.20;99.90
25450;DHT22;13371;52.080;5.624;2024-01-15T10:53:44;4.30;99.90
25450;DHT22;13371;52.080;5.624;2024-01-15T10:56:11;4.40;99.90
25450;DHT22;13371;52.080;5.624;2024-01-15T10:58:39;4.50;99.90
25450;DHT22;13371;52.080;5.624;2024-01-15T11:01:05;4.50;99.90
25450;DHT22;13371;52.080;5.624;2024-01-15T11:03:32;4.40;99.90
25450;DHT22;13371;52.080;5.624;2024-01-15T11:05:57;4.20;99.90
25450;DHT22;13371;52.080;5.624;2024-01-15T11:08:25;4.30;99.90
25450;DHT22;13371;52.080;5.624;2024-01-15T11:10:51;4.30;99.90
25450;DHT22;13371;52.080;5.624;2024-01-15T11:13:22;4.40;99.90
25450;DHT22;13371;52.080;5.624;2024-01-15T11:18:30;4.50;99.90
25450;DHT22;13371;52.080;5.624;2024-01-15T11:23:58;4.70;99.90
25450;DHT22;13371;52.080;5.624;2024-01-15T11:26:38;4.80;99.90
25450;DHT22;13371;52.080;5.624;2024-01-15T11:29:52;4.70;99.90
25450;DHT22;13371;52.080;5.624;2024-01-15T11:34:54;4.60;99.90
25450;DHT22;13371;52.080;5.624;2024-01-15T11:37:25;4.60;99.90
25450;DHT22;13371;52.080;5.624;2024-01-15T11:39:52;4.50;99.90
25450;DHT22;13371;52.080;5.624;2024-01-15T11:42:19;4.60;99.90
25450;DHT22;13371;52.080;5.624;2024-01-15T11:44:45;4.90;99.90
25450;DHT22;13371;52.080;5.624;2024-01-15T11:47:12;5.20;99.90
25450;DHT22;13371;52.080;5.624;2024-01-15T11:50:03;5.20;99.90
25450;DHT22;13371;52.080;5.624;2024-01-15T11:52:38;5.30;99.90
25450;DHT22;13371;52.080;5.624;2024-01-15T11:55:19;5.50;99.90
25450;DHT22;13371;52.080;5.624;2024-01-15T11:57:51;5.50;99.90
25450;DHT22;13371;52.080;5.624;2024-01-15T12:00:17;5.70;99.90
25450;DHT22;13371;52.080;5.624;2024-01-15T12:02:44;5.60;99.90
25450;DHT22;13371;52.080;5.624;2024-01-15T12:05:11;5.80;99.90
25450;DHT22;13371;52.080;5.624;2024-01-15T12:07:40;5.90;99.90
25450;DHT22;13371;52.080;5.624;2024-01-15T12:10:14;5.90;99.90
25450;DHT22;13371;52.080;5.624;2024-01-15T12:15:25;5.60;99.90
25450;DHT22;13371;52.080;5.624;2024-01-15T12:17:51;5.50;99.90
25450;DHT22;13371;52.080;5.624;2024-01-15T12:20:17;5.50;99.90
25450;DHT22;13371;52.080;5.624;2024-01-15T12:22:43;5.30;99.90
25450;DHT22;13371;52.080;5.624;2024-01-15T12:25:09;5.30;99.90
25450;DHT22;13371;52.080;5.624;2024-01-15T12:27:35;5.30;99.90
25450;DHT22;13371;52.080;5.624;2024-01-15T12:30:01;4.90;99.90
25450;DHT22;13371;52.080;5.624;2024-01-15T12:32:26;4.80;99.90
25450;DHT22;13371;52.080;5.624;2024-01-15T12:34:52;4.70;99.90
25450;DHT22;13371;52.080;5.624;2024-01-15T12:37:21;4.70;99.90
25450;DHT22;13371;52.080;5.624;2024-01-15T12:39:47;4.70;99.90
25450;DHT22;13371;52.080;5.624;2024-01-15T12:42:16;4.90;99.90
25450;DHT22;13371;52.080;5.624;2024-01-15T12:44:42;5.00;99.90
25450;DHT22;13371;52.080;5.624;2024-01-15T12:47:08;4.90;99.90
25450;DHT22;13371;52.080;5.624;2024-01-15T12:49:39;4.90;99.90
25450;DHT22;13371;52.080;5.624;2024-01-15T12:52:10;4.80;99.90
25450;DHT22;13371;52.080;5.624;2024-01-15T12:54:36;4.90;99.90
25450;DHT22;13371;52.080;5.624;2024-01-15T12:57:02;4.70;99.90
25450;DHT22;13371;52.080;5.624;2024-01-15T12:59:27;4.60;99.90
25450;DHT22;13371;52.080;5.624;2024-01-15T13:01:53;4.70;99.90
25450;DHT22;13371;52.080;5.624;2024-01-15T13:04:24;4.80;99.90
25450;DHT22;13371;52.080;5.624;2024-01-15T13:06:50;4.90;99.90
25450;DHT22;13371;52.080;5.624;2024-01-15T13:09:17;4.90;99.90
25450;DHT22;13371;52.080;5.624;2024-01-15T13:11:46;4.80;99.90
25450;DHT22;13371;52.080;5.624;2024-01-15T13:14:12;4.80;99.90
25450;DHT22;13371;52.080;5.624;2024-01-15T13:16:42;4.80;99.90
25450;DHT22;13371;52.080;5.624;2024-01-15T13:19:10;4.90;99.90
25450;DHT22;13371;52.080;5.624;2024-01-15T13:21:45;4.80;99.90
25450;DHT22;13371;52.080;5.624;2024-01-15T13:24:11;4.70;99.90
25450;DHT22;13371;52.080;5.624;2024-01-15T13:26:36;4.70;99.90
25450;DHT22;13371;52.080;5.624;2024-01-15T13:29:03;4.80;99.90
25450;DHT22;13371;52.080;5.624;2024-01-15T13:31:32;4.90;99.90
25450;DHT22;13371;52.080;5.624;2024-01-15T13:34:01;5.10;99.90
25450;DHT22;13371;52.080;5.624;2024-01-15T13:36:27;5.10;99.90
25450;DHT22;13371;52.080;5.624;2024-01-15T13:38:53;5.00;99.90
25450;DHT22;13371;52.080;5.624;2024-01-15T13:41:22;5.00;99.90
25450;DHT22;13371;52.080;5.624;2024-01-15T13:43:51;5.00;99.90
25450;DHT22;13371;52.080;5.624;2024-01-15T13:46:20;5.10;99.90
25450;DHT22;13371;52.080;5.624;2024-01-15T13:48:47;5.30;99.90
25450;DHT22;13371;52.080;5.624;2024-01-15T13:51:13;5.30;99.90
25450;DHT22;13371;52.080;5.624;2024-01-15T13:53:38;5.40;99.90
25450;DHT22;13371;52.080;5.624;2024-01-15T13:56:05;5.30;99.90
25450;DHT22;13371;52.080;5.624;2024-01-15T13:58:31;5.20;99.90
25450;DHT22;13371;52.080;5.624;2024-01-15T14:00:58;5.30;99.90
25450;DHT22;13371;52.080;5.624;2024-01-15T14:03:24;5.20;99.90
25450;DHT22;13371;52.080;5.624;2024-01-15T14:05:51;5.40;99.90
25450;DHT22;13371;52.080;5.624;2024-01-15T14:08:16;5.30;99.90
25450;DHT22;13371;52.080;5.624;2024-01-15T14:10:42;5.40;99.90
25450;DHT22;13371;52.080;5.624;2024-01-15T14:13:08;5.40;99.90
25450;DHT22;13371;52.080;5.624;2024-01-15T14:15:34;5.30;99.90
25450;DHT22;13371;52.080;5.624;2024-01-15T14:18:00;5.40;99.90
25450;DHT22;13371;52.080;5.624;2024-01-15T14:20:26;5.40;99.90
25450;DHT22;13371;52.080;5.624;2024-01-15T14:22:53;5.50;99.90
25450;DHT22;13371;52.080;5.624;2024-01-15T14:25:18;5.50;99.90
25450;DHT22;13371;52.080;5.624;2024-01-15T14:27:44;5.40;99.90
25450;DHT22;13371;52.080;5.624;2024-01-15T14:30:10;5.70;99.90
25450;DHT22;13371;52.080;5.624;2024-01-15T14:32:37;5.90;99.90
25450;DHT22;13371;52.080;5.624;2024-01-15T14:35:02;5.70;99.90
25450;DHT22;13371;52.080;5.624;2024-01-15T14:37:30;5.50;99.90
25450;DHT22;13371;52.080;5.624;2024-01-15T14:39:56;5.50;99.90
25450;DHT22;13371;52.080;5.624;2024-01-15T14:42:22;5.60;99.90
25450;DHT22;13371;52.080;5.624;2024-01-15T14:44:48;5.60;99.90
25450;DHT22;13371;52.080;5.624;2024-01-15T14:47:13;5.50;99.90
25450;DHT22;13371;52.080;5.624;2024-01-15T14:49:39;5.50;99.90
25450;DHT22;13371;52.080;5.624;2024-01-15T14:52:04;5.50;99.90
25450;DHT22;13371;52.080;5.624;2024-01-15T14:54:30;5.50;99.90
25450;DHT22;13371;52.080;5.624;2024-01-15T14:56:55;5.40;99.90
25450;DHT22;13371;52.080;5.624;2024-01-15T14:59:22;5.40;99.90
25450;DHT22;13371;52.080;5.624;2024-01-15T15:01:47;5.70;99.90
25450;DHT22;13371;52.080;5.624;2024-01-15T15:04:13;5.40;99.90
25450;DHT22;13371;52.080;5.624;2024-01-15T15:06:39;5.40;99.90
25450;DHT22;13371;52.080;5.624;2024-01-15T15:09:04;5.10;99.90
25450;DHT22;13371;52.080;5.624;2024-01-15T15:11:35;5.20;99.90
25450;DHT22;13371;52.080;5.624;2024-01-15T15:14:01;5.20;99.90
25450;DHT22;13371;52.080;5.624;2024-01-15T15:16:27;5.30;99.90
25450;DHT22;13371;52.080;5.624;2024-01-15T15:18:53;5.30;99.90
25450;DHT22;13371;52.080;5.624;2024-01-15T15:21:20;5.20;99.90
25450;DHT22;13371;52.080;5.624;2024-01-15T15:23:45;5.30;99.90
25450;DHT22;13371;52.080;5.624;2024-01-15T15:26:12;5.30;99.90
25450;DHT22;13371;52.080;5.624;2024-01-15T15:28:38;5.40;99.90
25450;DHT22;13371;52.080;5.624;2024-01-15T15:31:05;5.30;99.90
25450;DHT22;13371;52.080;5.624;2024-01-15T15:33:33;5.30;99.90
25450;DHT22;13371;52.080;5.624;2024-01-15T15:36:00;5.40;99.90
25450;DHT22;13371;52.080;5.624;2024-01-15T15:38:30;5.50;99.90
25450;DHT22;13371;52.080;5.624;2024-01-15T15:40:56;5.60;99.90
25450;DHT22;13371;52.080;5.624;2024-01-15T15:43:21;5.30;99.90
25450;DHT22;13371;52.080;5.624;2024-01-15T15:45:47;5.20;99.90
25450;DHT22;13371;52.080;5.624;2024-01-15T15:48:13;5.00;99.90
25450;DHT22;13371;52.080;5.624;2024-01-15T15:50:38;5.00;99.90